Osterild, Denmark
Current Conditions -  °F | °C
As of 2:20 AM on Tuesday 21 Oct 2014 (Local Time) from EKYT Reporting Station
Clear Clear  
Wind Chill:   Ceiling: Unl
Heat Index:   Visibility: 6mi
Dew Point:   Wind: 8mph
Humidity: 93%   Direction: 210°SSW
Pressure: 29.65"   Gusts: NA
Location:  57.03°N, 8.86°E
Report Text: EKYT 210020Z 21007KT CAVOK 09/08 Q1004 RMK FEW200
Loading
Personal Weather Stations






























Interactive Weather Map
Tropical Storm Tracking
New forecast layout! Learn more

10-Day Weather Forecast

Advertisements
Track Severe Weather on mobile